createdAt,value
2022-10-22T00:02:24.435Z,5.80
2022-10-22T00:04:51.170Z,5.93
2022-10-22T00:07:18.255Z,5.55
2022-10-22T00:09:44.745Z,6.32
2022-10-22T00:12:11.325Z,6.75
2022-10-22T00:14:37.839Z,7.07
2022-10-22T00:17:06.952Z,6.15
2022-10-22T00:19:37.792Z,6.28
2022-10-22T00:22:05.861Z,6.43
2022-10-22T00:26:58.858Z,6.53
2022-10-22T00:29:25.360Z,7.78
2022-10-22T00:31:51.891Z,6.03
2022-10-22T00:34:20.150Z,6.68
2022-10-22T00:36:47.155Z,7.32
2022-10-22T00:39:17.748Z,6.18
2022-10-22T00:41:44.620Z,5.97
2022-10-22T00:44:29.891Z,6.35
2022-10-22T00:46:56.373Z,6.05
2022-10-22T00:49:22.835Z,5.68
2022-10-22T00:51:49.378Z,6.07
2022-10-22T00:54:15.863Z,6.47
2022-10-22T00:56:42.328Z,5.38
2022-10-22T01:01:40.451Z,6.07
2022-10-22T01:04:06.960Z,5.47
2022-10-22T01:06:34.011Z,5.95
2022-10-22T01:09:10.199Z,5.70
2022-10-22T01:11:55.528Z,6.47
2022-10-22T01:14:24.989Z,6.18
2022-10-22T01:16:51.394Z,6.07
2022-10-22T01:19:33.126Z,6.07
2022-10-22T01:22:02.786Z,5.80
2022-10-22T01:24:35.357Z,5.75
2022-10-22T01:27:13.317Z,6.38
2022-10-22T01:29:45.462Z,4.10
2022-10-22T01:32:15.722Z,5.47
2022-10-22T01:34:44.279Z,5.82
2022-10-22T01:37:12.071Z,5.07
2022-10-22T01:39:40.338Z,6.07
2022-10-22T01:42:06.784Z,5.85
2022-10-22T01:47:25.044Z,6.30
2022-10-22T01:49:51.523Z,6.80
2022-10-22T01:52:18.017Z,6.53
2022-10-22T01:54:51.988Z,6.63
2022-10-22T01:57:28.423Z,6.72
2022-10-22T02:00:01.009Z,6.05
2022-10-22T02:05:20.351Z,5.85
2022-10-22T02:07:52.034Z,5.13
2022-10-22T02:10:19.581Z,6.70
2022-10-22T02:12:48.375Z,6.00
2022-10-22T02:15:15.861Z,5.63
2022-10-22T02:17:43.684Z,5.68
2022-10-22T02:20:12.517Z,5.75
2022-10-22T02:22:40.204Z,6.75
2022-10-22T02:25:07.108Z,6.82
2022-10-22T02:27:39.277Z,5.80
2022-10-22T02:30:07.536Z,6.97
2022-10-22T02:32:57.016Z,5.60
2022-10-22T02:35:24.696Z,6.18
2022-10-22T02:37:51.718Z,10.63
2022-10-22T02:40:18.515Z,9.43
2022-10-22T02:42:46.855Z,8.68
2022-10-22T02:45:13.317Z,26.45
2022-10-22T02:47:39.818Z,84.93
2022-10-22T02:50:09.494Z,100.18
2022-10-22T02:52:37.615Z,57.95
2022-10-22T02:55:04.811Z,22.65
2022-10-22T02:57:31.452Z,8.30
2022-10-22T02:59:57.902Z,8.40
2022-10-22T03:02:24.448Z,7.55
2022-10-22T03:04:50.866Z,6.05
2022-10-22T03:07:17.321Z,5.55
2022-10-22T03:09:43.896Z,5.63
2022-10-22T03:12:10.326Z,5.75
2022-10-22T03:14:36.813Z,6.22
2022-10-22T03:17:03.437Z,5.63
2022-10-22T03:19:29.869Z,10.13
2022-10-22T03:21:56.295Z,10.48
2022-10-22T03:24:25.320Z,10.32
2022-10-22T03:26:52.936Z,6.43
2022-10-22T03:29:21.282Z,6.65
2022-10-22T03:31:47.740Z,6.22
2022-10-22T03:34:14.781Z,6.00
2022-10-22T03:36:41.525Z,5.18
2022-10-22T03:39:08.130Z,4.82
2022-10-22T03:41:34.856Z,5.38
2022-10-22T03:44:02.613Z,6.40
2022-10-22T03:46:29.193Z,7.82
2022-10-22T03:48:55.645Z,7.80
2022-10-22T03:51:22.113Z,8.40
2022-10-22T03:53:48.625Z,8.73
2022-10-22T03:56:15.087Z,7.43
2022-10-22T03:58:41.653Z,7.47
2022-10-22T04:01:09.498Z,6.63
2022-10-22T04:03:36.027Z,6.63
2022-10-22T04:06:06.935Z,6.57
2022-10-22T04:08:33.779Z,9.48
2022-10-22T04:11:00.332Z,8.35
2022-10-22T04:13:27.019Z,8.40
2022-10-22T04:15:53.584Z,9.82
2022-10-22T04:18:20.789Z,13.77
2022-10-22T04:20:47.810Z,9.20
2022-10-22T04:23:14.515Z,11.02
2022-10-22T04:25:40.962Z,10.60
2022-10-22T04:28:08.354Z,8.68
2022-10-22T04:30:35.150Z,8.07
2022-10-22T04:33:01.640Z,8.13
2022-10-22T04:35:28.450Z,7.05
2022-10-22T04:37:55.168Z,8.00
2022-10-22T04:40:21.682Z,15.50
2022-10-22T04:42:48.192Z,45.90
2022-10-22T04:45:15.789Z,19.45
2022-10-22T04:47:42.556Z,13.02
2022-10-22T04:50:09.380Z,10.93
2022-10-22T04:52:35.889Z,9.88
2022-10-22T04:55:02.378Z,10.13
2022-10-22T04:57:33.515Z,9.07
2022-10-22T05:00:00.015Z,8.93
2022-10-22T05:02:26.730Z,9.57
2022-10-22T05:04:53.221Z,9.60
2022-10-22T05:07:19.712Z,8.13
2022-10-22T05:09:46.168Z,8.15
2022-10-22T05:12:12.834Z,7.25
2022-10-22T05:14:43.902Z,6.93
2022-10-22T05:17:11.387Z,8.68
2022-10-22T05:19:38.060Z,6.03
2022-10-22T05:22:05.103Z,7.28
2022-10-22T05:24:32.501Z,8.90
2022-10-22T05:26:59.646Z,8.25
2022-10-22T05:29:26.814Z,12.55
2022-10-22T05:31:53.470Z,14.20
2022-10-22T05:34:20.027Z,12.65
2022-10-22T05:36:46.769Z,11.80
2022-10-22T05:39:13.262Z,13.32
2022-10-22T05:41:39.768Z,12.10
2022-10-22T05:44:06.269Z,11.43
2022-10-22T05:46:34.521Z,10.10
2022-10-22T05:49:02.430Z,10.00
2022-10-22T05:51:30.125Z,10.48
2022-10-22T05:53:58.016Z,9.40
2022-10-22T05:56:25.036Z,10.82
2022-10-22T05:58:51.658Z,12.20
2022-10-22T06:01:22.773Z,11.07
2022-10-22T06:03:49.351Z,11.55
2022-10-22T06:06:18.672Z,10.70
2022-10-22T06:08:46.377Z,10.90
2022-10-22T06:11:13.261Z,11.55
2022-10-22T06:13:39.837Z,10.52
2022-10-22T06:16:06.380Z,10.45
2022-10-22T06:18:33.179Z,11.25
2022-10-22T06:21:04.020Z,11.73
2022-10-22T06:23:30.450Z,11.85
2022-10-22T06:25:58.085Z,10.55
2022-10-22T06:30:57.344Z,9.65
2022-10-22T06:33:23.800Z,7.75
2022-10-22T06:35:50.283Z,6.38
2022-10-22T06:38:16.844Z,7.05
2022-10-22T06:40:46.145Z,7.47
2022-10-22T06:43:13.014Z,7.65
2022-10-22T06:45:39.495Z,6.65
2022-10-22T06:48:06.002Z,6.65
2022-10-22T06:50:34.371Z,6.32
2022-10-22T06:53:02.457Z,6.55
2022-10-22T06:55:28.940Z,6.65
2022-10-22T06:57:55.590Z,6.57
2022-10-22T07:00:22.379Z,6.18
2022-10-22T07:02:56.475Z,5.72
2022-10-22T07:05:25.719Z,5.43
2022-10-22T07:07:52.207Z,6.18
2022-10-22T07:10:18.847Z,6.53
2022-10-22T07:12:45.487Z,7.78
2022-10-22T07:15:12.324Z,6.55
2022-10-22T07:20:05.807Z,6.50
2022-10-22T07:22:33.004Z,6.78
2022-10-22T07:25:01.588Z,6.70
2022-10-22T07:27:30.534Z,5.85
2022-10-22T07:29:57.063Z,6.68
2022-10-22T07:32:23.997Z,6.13
2022-10-22T07:34:50.650Z,7.03
2022-10-22T07:37:17.180Z,5.85
2022-10-22T07:39:46.341Z,6.70
2022-10-22T07:42:13.976Z,5.45
2022-10-22T07:44:40.578Z,6.93
2022-10-22T07:47:07.217Z,5.50
2022-10-22T07:49:33.645Z,5.50
2022-10-22T07:52:00.096Z,5.25
2022-10-22T07:54:26.561Z,4.93
2022-10-22T07:56:53.049Z,4.95
2022-10-22T07:59:19.585Z,4.78
2022-10-22T08:01:47.066Z,3.97
2022-10-22T08:04:13.596Z,4.40
2022-10-22T08:06:42.524Z,4.63
2022-10-22T08:09:12.130Z,3.95
2022-10-22T08:11:39.198Z,4.55
2022-10-22T08:14:05.689Z,5.05
2022-10-22T08:16:32.158Z,4.05
2022-10-22T08:18:59.030Z,4.65
2022-10-22T08:21:25.481Z,4.18
2022-10-22T08:23:52.144Z,3.72
2022-10-22T08:26:18.642Z,3.30
2022-10-22T08:28:45.180Z,3.80
2022-10-22T08:31:11.679Z,3.30
2022-10-22T08:33:39.036Z,3.22
2022-10-22T08:36:05.725Z,2.90
2022-10-22T08:38:32.169Z,2.10
2022-10-22T08:41:14.126Z,1.95
2022-10-22T08:43:59.011Z,2.80
2022-10-22T08:46:44.553Z,2.30
2022-10-22T08:49:19.016Z,2.50
2022-10-22T08:51:45.525Z,2.60
2022-10-22T08:54:30.765Z,2.00
2022-10-22T08:57:04.214Z,2.45
2022-10-22T08:59:52.594Z,2.30
2022-10-22T09:02:19.129Z,2.63
2022-10-22T09:04:50.003Z,2.88
2022-10-22T09:07:16.546Z,3.10
2022-10-22T09:09:46.899Z,3.03
2022-10-22T09:12:20.209Z,2.63
2022-10-22T09:14:47.137Z,2.10
2022-10-22T09:17:22.851Z,2.90
2022-10-22T09:20:02.258Z,2.38
2022-10-22T09:22:47.389Z,2.58
2022-10-22T09:25:16.904Z,2.47
2022-10-22T09:27:43.918Z,2.60
2022-10-22T09:30:18.236Z,2.70
2022-10-22T09:32:44.943Z,3.03
2022-10-22T09:35:12.757Z,3.03
2022-10-22T09:37:48.772Z,3.03
2022-10-22T09:40:15.863Z,3.20
2022-10-22T09:42:44.019Z,2.90
2022-10-22T09:45:21.220Z,3.67
2022-10-22T09:48:01.639Z,3.20
2022-10-22T09:50:46.092Z,3.90
2022-10-22T09:53:35.539Z,3.70
2022-10-22T09:56:06.777Z,3.58
2022-10-22T09:58:41.646Z,3.90
2022-10-22T10:01:08.117Z,3.85
2022-10-22T10:03:34.597Z,3.15
2022-10-22T10:06:05.067Z,3.22
2022-10-22T10:08:32.913Z,3.45
2022-10-22T10:11:19.311Z,3.00
2022-10-22T10:13:51.989Z,3.55
2022-10-22T10:16:41.154Z,3.05
2022-10-22T10:19:08.167Z,2.83
2022-10-22T10:21:43.784Z,2.60
2022-10-22T10:24:16.668Z,2.97
2022-10-22T10:26:47.778Z,2.85
2022-10-22T10:29:33.782Z,2.85
2022-10-22T10:32:22.294Z,2.90
2022-10-22T10:34:50.792Z,2.85
2022-10-22T10:37:17.452Z,3.10
2022-10-22T10:39:56.064Z,2.65
2022-10-22T10:42:31.861Z,2.45
2022-10-22T10:45:18.613Z,2.63
2022-10-22T10:48:03.346Z,2.78
2022-10-22T10:50:48.177Z,2.83
2022-10-22T10:53:20.349Z,2.95
2022-10-22T10:55:56.192Z,2.95
2022-10-22T10:58:34.593Z,3.10
2022-10-22T11:01:05.340Z,2.70
2022-10-22T11:03:37.108Z,3.03
2022-10-22T11:06:07.667Z,3.45
2022-10-22T11:08:45.945Z,3.88
2022-10-22T11:14:18.432Z,3.25
2022-10-22T11:16:53.564Z,3.38
2022-10-22T11:19:46.110Z,3.47
2022-10-22T11:24:38.386Z,2.75
2022-10-22T11:27:06.885Z,3.45
2022-10-22T11:29:44.504Z,3.13
2022-10-22T11:32:20.950Z,3.25
2022-10-22T11:34:54.351Z,3.90
2022-10-22T11:37:21.959Z,3.78
2022-10-22T11:39:53.716Z,3.05
2022-10-22T11:42:22.108Z,4.30
2022-10-22T11:44:57.735Z,3.15
2022-10-22T11:47:25.723Z,3.67
2022-10-22T11:50:02.439Z,3.30
2022-10-22T11:52:32.010Z,3.85
2022-10-22T11:55:01.582Z,4.22
2022-10-22T11:57:35.363Z,3.38
2022-10-22T12:00:06.482Z,3.75
2022-10-22T12:02:41.157Z,3.67
2022-10-22T12:05:40.611Z,4.93
2022-10-22T12:08:14.784Z,3.47
2022-10-22T12:11:03.913Z,3.65
2022-10-22T12:13:31.857Z,3.20
2022-10-22T12:15:59.732Z,3.83
2022-10-22T12:18:35.315Z,4.38
2022-10-22T12:21:01.777Z,4.90
2022-10-22T12:23:34.293Z,3.55
2022-10-22T12:26:00.917Z,3.42
2022-10-22T12:28:27.437Z,3.75
2022-10-22T12:30:53.962Z,3.08
2022-10-22T12:33:22.880Z,4.72
2022-10-22T12:35:52.968Z,5.95
2022-10-22T12:38:21.425Z,3.67
2022-10-22T12:40:49.107Z,4.38
2022-10-22T12:43:17.044Z,5.35
2022-10-22T12:45:44.743Z,4.07
2022-10-22T12:48:14.078Z,3.88
2022-10-22T12:50:42.429Z,3.53
2022-10-22T12:53:15.070Z,4.65
2022-10-22T12:55:42.123Z,3.78
2022-10-22T12:58:09.816Z,4.88
2022-10-22T13:00:36.777Z,3.58
2022-10-22T13:03:05.288Z,3.95
2022-10-22T13:05:38.867Z,3.70
2022-10-22T13:08:13.229Z,3.55
2022-10-22T13:10:40.938Z,3.28
2022-10-22T13:13:07.777Z,3.53
2022-10-22T13:15:38.920Z,3.40
2022-10-22T13:18:27.084Z,3.40
2022-10-22T13:20:53.599Z,3.75
2022-10-22T13:23:21.966Z,3.70
2022-10-22T13:25:59.379Z,4.00
2022-10-22T13:28:26.646Z,3.55
2022-10-22T13:30:54.302Z,3.97
2022-10-22T13:33:27.082Z,4.18
2022-10-22T13:35:56.238Z,3.60
2022-10-22T13:38:24.948Z,3.42
2022-10-22T13:40:51.474Z,4.07
2022-10-22T13:43:18.042Z,3.08
2022-10-22T13:45:45.428Z,3.67
2022-10-22T13:48:21.783Z,3.67
2022-10-22T13:50:48.826Z,3.90
2022-10-22T13:53:18.909Z,3.45
2022-10-22T13:55:46.188Z,4.18
2022-10-22T13:58:14.293Z,4.13
2022-10-22T14:03:10.110Z,4.05
2022-10-22T14:05:36.729Z,3.40
2022-10-22T14:08:03.999Z,4.55
2022-10-22T14:10:30.587Z,4.68
2022-10-22T14:12:58.583Z,4.75
2022-10-22T14:15:25.782Z,4.05
2022-10-22T14:17:57.100Z,4.05
2022-10-22T14:20:28.042Z,4.50
2022-10-22T14:22:55.184Z,4.35
2022-10-22T14:25:23.181Z,3.90
2022-10-22T14:27:50.049Z,4.00
2022-10-22T14:30:17.923Z,4.20
2022-10-22T14:32:44.541Z,5.30
2022-10-22T14:35:14.801Z,4.10
2022-10-22T14:37:41.801Z,3.88
2022-10-22T14:40:09.075Z,4.40
2022-10-22T14:42:40.382Z,3.83
2022-10-22T14:45:07.689Z,3.78
2022-10-22T14:47:34.278Z,4.50
2022-10-22T14:50:01.942Z,4.93
2022-10-22T14:52:28.576Z,5.32
2022-10-22T14:54:55.166Z,4.10
2022-10-22T14:57:21.751Z,4.10
2022-10-22T14:59:48.359Z,3.90
2022-10-22T15:02:14.998Z,4.47
2022-10-22T15:04:41.608Z,4.10
2022-10-22T15:07:08.180Z,4.57
2022-10-22T15:09:34.813Z,5.18
2022-10-22T15:12:01.408Z,6.60
2022-10-22T15:14:27.977Z,6.57
2022-10-22T15:16:54.561Z,8.32
2022-10-22T15:19:21.230Z,11.63
2022-10-22T15:21:47.861Z,20.83
2022-10-22T15:24:14.627Z,17.80
2022-10-22T15:26:41.190Z,14.13
2022-10-22T15:29:08.483Z,14.90
2022-10-22T15:31:42.544Z,12.70
2022-10-22T15:34:09.138Z,11.05
2022-10-22T15:36:35.776Z,10.02
2022-10-22T15:39:06.556Z,12.40
2022-10-22T15:41:34.712Z,14.45
2022-10-22T15:44:01.321Z,10.27
2022-10-22T15:46:33.199Z,12.48
2022-10-22T15:49:02.017Z,10.30
2022-10-22T15:51:28.550Z,9.45
2022-10-22T15:53:56.345Z,8.20
2022-10-22T15:56:23.442Z,7.82
2022-10-22T15:58:54.410Z,7.00
2022-10-22T16:01:21.190Z,7.22
2022-10-22T16:03:47.968Z,9.32
2022-10-22T16:06:14.573Z,10.05
2022-10-22T16:08:41.228Z,10.52
2022-10-22T16:11:07.879Z,13.40
2022-10-22T16:13:36.846Z,16.40
2022-10-22T16:16:08.255Z,21.15
2022-10-22T16:18:34.976Z,26.23
2022-10-22T16:21:01.669Z,25.13
2022-10-22T16:23:28.249Z,23.23
2022-10-22T16:25:54.905Z,32.20
2022-10-22T16:28:21.567Z,33.13
2022-10-22T16:30:48.374Z,30.60
2022-10-22T16:33:15.000Z,23.15
2022-10-22T16:35:42.426Z,26.42
2022-10-22T16:38:10.494Z,29.50
2022-10-22T16:40:37.115Z,29.67
2022-10-22T16:43:03.632Z,32.03
2022-10-22T16:45:30.196Z,37.53
2022-10-22T16:47:56.761Z,36.03
2022-10-22T16:50:23.540Z,41.40
2022-10-22T16:52:50.968Z,42.47
2022-10-22T16:55:17.594Z,40.60
2022-10-22T16:57:46.208Z,42.58
2022-10-22T17:00:13.241Z,38.13
2022-10-22T17:02:40.143Z,39.42
2022-10-22T17:05:07.206Z,39.58
2022-10-22T17:07:33.797Z,40.28
2022-10-22T17:10:01.244Z,40.50
2022-10-22T17:12:27.931Z,43.88
2022-10-22T17:14:56.752Z,41.13
2022-10-22T17:17:23.292Z,47.72
2022-10-22T17:19:49.748Z,45.33
2022-10-22T17:22:18.358Z,43.25
2022-10-22T17:24:45.408Z,47.08
2022-10-22T17:27:12.006Z,41.03
2022-10-22T17:29:38.683Z,40.05
2022-10-22T17:32:05.507Z,43.85
2022-10-22T17:34:33.317Z,43.50
2022-10-22T17:37:00.374Z,42.45
2022-10-22T17:39:27.101Z,44.25
2022-10-22T17:41:54.008Z,45.78
2022-10-22T17:44:20.618Z,37.83
2022-10-22T17:46:49.620Z,35.08
2022-10-22T17:49:17.584Z,34.58
2022-10-22T17:51:44.327Z,33.28
2022-10-22T17:54:12.373Z,33.72
2022-10-22T17:56:40.412Z,34.67
2022-10-22T18:01:34.828Z,39.50
2022-10-22T18:04:02.867Z,41.47
2022-10-22T18:06:31.174Z,41.53
2022-10-22T18:11:26.110Z,37.30
2022-10-22T18:13:53.868Z,37.92
2022-10-22T18:16:20.781Z,41.92
2022-10-22T18:18:48.354Z,41.35
2022-10-22T18:21:15.946Z,42.80
2022-10-22T18:23:42.918Z,42.20
2022-10-22T18:26:09.501Z,42.50
2022-10-22T18:28:36.200Z,44.00
2022-10-22T18:31:07.114Z,44.65
2022-10-22T18:33:34.636Z,44.50
2022-10-22T18:36:05.271Z,43.83
2022-10-22T18:38:31.822Z,43.63
2022-10-22T18:40:58.289Z,42.33
2022-10-22T18:43:24.787Z,41.75
2022-10-22T18:45:51.326Z,40.03
2022-10-22T18:48:18.776Z,40.47
2022-10-22T18:50:45.854Z,41.53
2022-10-22T18:53:13.146Z,38.50
2022-10-22T18:55:40.363Z,34.97
2022-10-22T18:58:08.116Z,33.20
2022-10-22T19:00:35.446Z,32.00
2022-10-22T19:03:03.325Z,32.57
2022-10-22T19:05:29.957Z,31.65
2022-10-22T19:07:56.460Z,33.78
2022-10-22T19:10:22.922Z,31.52
2022-10-22T19:12:49.448Z,31.60
2022-10-22T19:15:16.159Z,30.75
2022-10-22T19:17:42.891Z,26.83
2022-10-22T19:20:10.002Z,26.58
2022-10-22T19:22:36.517Z,26.33
2022-10-22T19:25:04.272Z,26.95
2022-10-22T19:27:32.765Z,28.15
2022-10-22T19:29:59.302Z,28.63
2022-10-22T19:32:28.776Z,27.88
2022-10-22T19:34:57.470Z,29.52
2022-10-22T19:37:23.937Z,32.97
2022-10-22T19:39:50.500Z,30.67
2022-10-22T19:42:17.123Z,30.95
2022-10-22T19:44:43.649Z,29.13
2022-10-22T19:47:11.708Z,29.05
2022-10-22T19:49:38.319Z,28.48
2022-10-22T19:52:05.281Z,29.55
2022-10-22T19:54:32.950Z,31.00
2022-10-22T19:59:29.917Z,29.98
2022-10-22T20:01:57.979Z,30.52
2022-10-22T20:04:25.939Z,28.70
2022-10-22T20:06:52.534Z,30.45
2022-10-22T20:09:19.136Z,30.70
2022-10-22T20:11:46.171Z,31.02
2022-10-22T20:14:13.421Z,29.83
2022-10-22T20:16:40.367Z,28.05
2022-10-22T20:19:07.797Z,30.17
2022-10-22T20:21:35.177Z,31.97
2022-10-22T20:24:01.885Z,31.53
2022-10-22T20:26:28.539Z,33.05
2022-10-22T20:28:55.823Z,35.20
2022-10-22T20:31:24.108Z,36.50
2022-10-22T20:36:18.980Z,33.70
2022-10-22T20:38:48.162Z,34.47
2022-10-22T20:41:17.283Z,32.30
2022-10-22T20:43:44.935Z,32.22
2022-10-22T20:46:19.221Z,33.20
2022-10-22T20:48:45.934Z,32.72
2022-10-22T20:51:12.914Z,35.00
2022-10-22T20:53:39.540Z,36.00
2022-10-22T20:56:06.884Z,35.08
2022-10-22T20:58:33.620Z,33.37
2022-10-22T21:01:09.381Z,35.25
2022-10-22T21:03:39.598Z,33.10
2022-10-22T21:06:06.247Z,35.50
2022-10-22T21:08:32.984Z,35.63
2022-10-22T21:10:59.576Z,35.55
2022-10-22T21:13:26.336Z,36.40
2022-10-22T21:15:52.962Z,32.83
2022-10-22T21:18:19.584Z,34.28
2022-10-22T21:20:46.345Z,35.85
2022-10-22T21:23:13.148Z,36.97
2022-10-22T21:25:42.080Z,35.83
2022-10-22T21:28:11.046Z,34.55
2022-10-22T21:30:44.404Z,31.58
2022-10-22T21:33:11.106Z,33.20
2022-10-22T21:35:37.803Z,32.35
2022-10-22T21:38:05.397Z,32.88
2022-10-22T21:40:32.515Z,23.02
2022-10-22T21:42:59.191Z,29.60
2022-10-22T21:45:25.921Z,32.95
2022-10-22T21:47:52.671Z,31.13
2022-10-22T21:50:19.468Z,32.03
2022-10-22T21:52:46.315Z,30.33
2022-10-22T21:55:13.216Z,31.70
2022-10-22T21:57:40.133Z,30.60
2022-10-22T22:00:07.730Z,30.38
2022-10-22T22:02:34.631Z,23.43
2022-10-22T22:05:01.373Z,32.85
2022-10-22T22:07:28.159Z,33.03
2022-10-22T22:09:54.910Z,35.65
2022-10-22T22:12:21.557Z,33.08
2022-10-22T22:14:48.221Z,34.63
2022-10-22T22:17:16.650Z,35.03
2022-10-22T22:19:43.397Z,33.55
2022-10-22T22:22:10.349Z,36.85
2022-10-22T22:24:38.362Z,33.88
2022-10-22T22:27:05.057Z,33.40
2022-10-22T22:29:31.976Z,33.50
2022-10-22T22:31:58.766Z,31.70
2022-10-22T22:34:25.518Z,32.28
2022-10-22T22:36:52.201Z,30.25
2022-10-22T22:39:20.049Z,29.30
2022-10-22T22:41:47.076Z,31.65
2022-10-22T22:44:13.773Z,30.33
2022-10-22T22:46:40.543Z,31.50
2022-10-22T22:49:07.380Z,29.92
2022-10-22T22:51:34.311Z,29.10
2022-10-22T22:54:01.590Z,30.80
2022-10-22T22:56:29.546Z,31.23
2022-10-22T22:58:56.407Z,30.80
2022-10-22T23:01:25.100Z,31.92
2022-10-22T23:03:56.598Z,33.00
2022-10-22T23:06:24.020Z,32.30
2022-10-22T23:08:51.089Z,33.15
2022-10-22T23:11:18.156Z,33.75
2022-10-22T23:13:45.043Z,33.67
2022-10-22T23:16:16.476Z,33.35
2022-10-22T23:18:43.595Z,33.70
2022-10-22T23:21:12.534Z,34.03
2022-10-22T23:23:39.310Z,33.90
2022-10-22T23:26:05.923Z,34.08
2022-10-22T23:28:32.715Z,34.15
2022-10-22T23:30:59.304Z,34.08
2022-10-22T23:33:25.961Z,31.20
2022-10-22T23:35:52.543Z,33.22
2022-10-22T23:38:19.085Z,32.65
2022-10-22T23:40:45.613Z,34.75
2022-10-22T23:43:12.134Z,36.03
2022-10-22T23:45:38.731Z,31.65
2022-10-22T23:48:05.409Z,31.63
2022-10-22T23:50:32.023Z,31.55
2022-10-22T23:52:58.584Z,32.20
2022-10-22T23:55:26.011Z,31.60
2022-10-22T23:57:53.166Z,29.95
